Time;durP1;ratioP1;P1;durP2;ratioP2;P2;SDS_P1;SDS_P2;PMS_P1;PMS_P2;Temp;Humidity;BMP_temperature;BMP_pressure;BME280_temperature;BME280_humidity;BME280_pressure;Samples;Min_cycle;Max_cycle;Signal;HPM_P1;HPM_P2
2022/02/27 00:02:14;;;;;;;3.60;1.90;;;;;;;-0.18;100.00;103286.66;6122617;29;20047;-80
2022/02/27 00:05:16;;;;;;;2.03;1.00;;;;;;;-0.17;100.00;103282.38;6162270;28;20053;-80
2022/02/27 00:08:17;;;;;;;6.30;1.38;;;;;;;-0.19;100.00;103291.78;6134423;28;20434;-80
2022/02/27 00:11:19;;;;;;;1.02;0.98;;;;;;;-0.20;100.00;103290.03;6169001;28;20055;-80
2022/02/27 00:14:21;;;;;;;5.32;2.20;;;;;;;-0.24;100.00;103289.03;6247775;28;20049;-80
2022/02/27 00:17:23;;;;;;;2.75;1.15;;;;;;;-0.24;100.00;103290.75;6248111;28;20416;-80
2022/02/27 00:20:24;;;;;;;3.33;1.65;;;;;;;-0.28;100.00;103279.44;6172844;28;20047;-81
2022/02/27 00:23:25;;;;;;;2.42;1.27;;;;;;;-0.31;100.00;103285.38;6206569;28;20046;-81
2022/02/27 00:26:26;;;;;;;2.95;1.60;;;;;;;-0.30;100.00;103284.56;6248180;28;20535;-80
2022/02/27 00:29:29;;;;;;;1.45;0.95;;;;;;;-0.29;100.00;103285.44;6248158;28;20049;-80
2022/02/27 00:32:30;;;;;;;3.10;1.70;;;;;;;-0.29;100.00;103278.56;6247738;28;20056;-80
2022/02/27 00:35:32;;;;;;;2.03;0.90;;;;;;;-0.29;100.00;103278.56;6247862;28;20049;-80
2022/02/27 00:38:33;;;;;;;5.00;1.67;;;;;;;-0.29;100.00;103275.09;6248343;28;20501;-80
2022/02/27 00:41:38;;;;;;;4.40;1.30;;;;;;;-0.31;100.00;103282.81;6247347;28;20049;-80
2022/02/27 00:44:41;;;;;;;1.42;0.93;;;;;;;-0.34;100.00;103287.88;6215105;28;20059;-80
2022/02/27 00:47:42;;;;;;;1.50;0.90;;;;;;;-0.38;100.00;103286.00;6146385;28;20048;-81
2022/02/27 00:50:44;;;;;;;2.03;1.10;;;;;;;-0.40;100.00;103284.22;6205520;28;20132;-80
2022/02/27 00:53:46;;;;;;;1.90;1.33;;;;;;;-0.41;100.00;103287.59;6247882;28;20508;-80
2022/02/27 00:56:47;;;;;;;1.67;1.10;;;;;;;-0.39;100.00;103280.81;6247750;28;20056;-80
2022/02/27 00:59:50;;;;;;;1.90;1.05;;;;;;;-0.39;100.00;103281.66;6168312;28;20048;-80
2022/02/27 01:02:51;;;;;;;1.60;1.38;;;;;;;-0.40;100.00;103279.06;6126591;29;20043;-80
2022/02/27 01:05:53;;;;;;;2.40;1.48;;;;;;;-0.45;100.00;103276.31;6228639;28;20060;-80
2022/02/27 01:08:55;;;;;;;1.45;1.30;;;;;;;-0.46;100.00;103274.53;6149538;28;20044;-80
2022/02/27 01:11:56;;;;;;;4.68;1.38;;;;;;;-0.46;100.00;103276.25;6122744;29;20059;-80
2022/02/27 01:14:59;;;;;;;1.33;1.05;;;;;;;-0.47;100.00;103271.91;6125133;29;20419;-80
2022/02/27 01:18:00;;;;;;;8.38;1.20;;;;;;;-0.47;100.00;103264.16;6127316;29;20518;-80
2022/02/27 01:21:02;;;;;;;0.98;0.80;;;;;;;-0.44;100.00;103265.16;6132158;29;20054;-80
2022/02/27 01:24:03;;;;;;;2.10;1.15;;;;;;;-0.42;100.00;103260.91;6129900;28;20055;-81
2022/02/27 01:27:06;;;;;;;3.20;1.48;;;;;;;-0.44;100.00;103272.03;6127094;28;20062;-81
2022/02/27 01:30:10;;;;;;;1.58;0.90;;;;;;;-0.43;100.00;103268.59;6126673;29;20056;-81
2022/02/27 01:33:11;;;;;;;1.50;1.05;;;;;;;-0.43;100.00;103269.47;6126362;29;20048;-80
2022/02/27 01:36:13;;;;;;;5.05;1.92;;;;;;;-0.44;100.00;103262.56;6126795;29;20055;-79
2022/02/27 01:39:14;;;;;;;4.57;2.13;;;;;;;-0.45;100.00;103268.56;6126867;29;20048;-80
2022/02/27 01:42:17;;;;;;;1.52;0.88;;;;;;;-0.44;100.00;103274.59;6125697;29;20515;-80
2022/02/27 01:45:21;;;;;;;2.58;1.17;;;;;;;-0.45;100.00;103268.56;6126525;29;20050;-80
2022/02/27 01:48:22;;;;;;;2.63;1.58;;;;;;;-0.47;100.00;103275.38;6126829;28;20492;-80
2022/02/27 01:51:23;;;;;;;2.45;1.65;;;;;;;-0.42;100.00;103271.22;6126093;29;20052;-80
2022/02/27 01:54:25;;;;;;;1.42;0.75;;;;;;;-0.39;100.00;103267.88;6126468;29;20044;-80
2022/02/27 01:57:27;;;;;;;3.13;1.15;;;;;;;-0.39;100.00;103267.88;6126576;29;20060;-80
2022/02/27 02:00:29;;;;;;;9.52;1.77;;;;;;;-0.41;100.00;103272.09;6125773;29;20051;-80
2022/02/27 02:03:31;;;;;;;8.25;1.42;;;;;;;-0.41;100.00;103265.25;6126184;28;20051;-79
2022/02/27 02:06:34;;;;;;;7.25;1.40;;;;;;;-0.38;100.00;103259.28;6126348;29;20055;-80
2022/02/27 02:09:35;;;;;;;2.72;0.90;;;;;;;-0.37;100.00;103268.78;6126377;29;20048;-80
2022/02/27 02:12:37;;;;;;;1.77;1.15;;;;;;;-0.37;100.00;103267.09;6125764;29;20503;-81
2022/02/27 02:15:39;;;;;;;2.58;1.33;;;;;;;-0.35;100.00;103262.88;6126337;29;20051;-81
2022/02/27 02:18:41;;;;;;;1.83;1.30;;;;;;;-0.41;100.00;103266.94;6126222;29;20048;-80
2022/02/27 02:21:46;;;;;;;2.92;1.70;;;;;;;-0.45;100.00;103275.44;6125349;29;20059;-80
2022/02/27 02:24:47;;;;;;;1.48;1.02;;;;;;;-0.53;100.00;103267.44;6126312;29;20438;-79
2022/02/27 02:27:48;;;;;;;4.43;2.03;;;;;;;-0.56;100.00;103268.19;6126490;28;20056;-80
2022/02/27 02:30:50;;;;;;;4.55;1.88;;;;;;;-0.57;100.00;103269.03;6125542;29;20057;-80
2022/02/27 02:33:51;;;;;;;5.80;1.40;;;;;;;-0.63;100.00;103270.53;6126462;29;20055;-80
2022/02/27 02:36:56;;;;;;;2.28;0.82;;;;;;;-0.67;100.00;103268.69;6126806;29;20056;-80
2022/02/27 02:39:57;;;;;;;2.90;1.67;;;;;;;-0.69;100.00;103260.88;6125877;28;20067;-80
2022/02/27 02:42:59;;;;;;;1.85;1.40;;;;;;;-0.66;100.00;103255.81;6125668;29;20052;-80
2022/02/27 02:46:00;;;;;;;2.65;1.67;;;;;;;-0.65;100.00;103254.09;6126033;29;20057;-80
2022/02/27 02:49:02;;;;;;;1.30;1.10;;;;;;;-0.68;100.00;103259.16;6125744;29;20790;-80
2022/02/27 02:52:05;;;;;;;2.40;1.33;;;;;;;-0.71;100.00;103256.50;6125156;29;20060;-80
2022/02/27 02:55:13;;;;;;;9.32;1.92;;;;;;;-0.70;100.00;103258.25;6125574;28;20058;-80
2022/02/27 02:58:14;;;;;;;2.75;1.05;;;;;;;-0.69;100.00;103260.88;6125613;29;20043;-81
2022/02/27 03:01:18;;;;;;;3.25;1.80;;;;;;;-0.72;100.00;103262.50;6139925;28;20055;-80
2022/02/27 03:04:19;;;;;;;3.83;1.60;;;;;;;-0.75;100.00;103273.56;6134669;28;20054;-80
2022/02/27 03:07:22;;;;;;;1.90;1.15;;;;;;;-0.80;100.00;103264.81;6133421;29;20052;-81
2022/02/27 03:10:23;;;;;;;1.73;1.23;;;;;;;-0.82;100.00;103267.34;6132705;29;20526;-80
2022/02/27 03:13:25;;;;;;;3.25;1.52;;;;;;;-0.83;100.00;103264.69;6149140;28;20047;-79
2022/02/27 03:16:27;;;;;;;6.18;1.23;;;;;;;-0.83;100.00;103270.72;6130411;28;20393;-80
2022/02/27 03:19:28;;;;;;;2.70;1.52;;;;;;;-0.82;100.00;103279.34;6111417;29;20182;-80
2022/02/27 03:22:31;;;;;;;1.60;1.15;;;;;;;-0.80;100.00;103285.44;6115043;28;20067;-80
2022/02/27 03:25:32;;;;;;;3.13;1.70;;;;;;;-0.80;100.00;103277.72;6114954;29;20178;-80
2022/02/27 03:28:33;;;;;;;2.88;1.42;;;;;;;-0.84;100.00;103281.88;6101643;28;20496;-80
2022/02/27 03:31:35;;;;;;;4.65;1.63;;;;;;;-0.89;100.00;103280.84;6101272;28;20055;-80
2022/02/27 03:34:36;;;;;;;5.00;1.77;;;;;;;-0.94;100.00;103271.19;6101573;28;20075;-80
2022/02/27 03:37:39;;;;;;;2.67;1.83;;;;;;;-0.95;100.00;103262.59;6100858;28;20435;-80
2022/02/27 03:40:40;;;;;;;2.40;1.08;;;;;;;-0.98;100.00;103265.03;6100830;28;20074;-79
2022/02/27 03:43:41;;;;;;;5.30;1.83;;;;;;;-1.02;100.00;103270.91;6101378;28;20051;-80
2022/02/27 03:46:43;;;;;;;3.45;1.60;;;;;;;-1.05;100.00;103266.50;6101445;28;20063;-80
2022/02/27 03:49:44;;;;;;;3.47;1.52;;;;;;;-1.10;100.00;103265.47;6127513;29;20648;-80
2022/02/27 03:52:47;;;;;;;2.92;1.55;;;;;;;-1.10;100.00;103267.19;6124314;29;20058;-80
2022/02/27 03:55:48;;;;;;;2.45;1.70;;;;;;;-1.11;100.00;103262.84;6124652;28;20058;-80
2022/02/27 03:58:50;;;;;;;2.15;1.05;;;;;;;-1.11;100.00;103265.44;6124744;29;20442;-80
2022/02/27 04:01:51;;;;;;;4.93;1.65;;;;;;;-1.16;100.00;103254.94;6123617;29;20052;-80
2022/02/27 04:04:52;;;;;;;2.40;1.83;;;;;;;-1.16;100.00;103264.41;6124694;29;20051;-80
2022/02/27 04:07:55;;;;;;;1.65;0.70;;;;;;;-1.17;100.00;103254.91;6124684;29;20056;-79
2022/02/27 04:10:56;;;;;;;1.17;0.98;;;;;;;-1.20;100.00;103268.56;6123552;29;20052;-80
2022/02/27 04:13:58;;;;;;;1.52;1.30;;;;;;;-1.23;100.00;103265.00;6124447;29;20058;-79
2022/02/27 04:16:59;;;;;;;1.40;0.93;;;;;;;-1.29;100.00;103265.66;6124342;29;20521;-80
2022/02/27 04:20:01;;;;;;;1.00;0.90;;;;;;;-1.33;100.00;103271.53;6123958;29;20423;-80
2022/02/27 04:23:04;;;;;;;3.10;1.60;;;;;;;-1.34;100.00;103262.03;6123523;29;20044;-80
2022/02/27 04:26:05;;;;;;;2.13;1.20;;;;;;;-1.38;100.00;103273.06;6124515;29;20058;-80
2022/02/27 04:29:07;;;;;;;3.50;1.50;;;;;;;-1.38;100.00;103275.63;6123791;29;20462;-79
2022/02/27 04:32:08;;;;;;;2.70;1.75;;;;;;;-1.41;100.00;103270.34;6123674;29;20071;-80
2022/02/27 04:35:10;;;;;;;2.05;1.48;;;;;;;-1.41;100.00;103272.94;6124076;29;20055;-80
2022/02/27 04:38:12;;;;;;;3.42;1.80;;;;;;;-1.42;100.00;103274.63;6123994;29;20055;-80
2022/02/27 04:41:18;;;;;;;2.40;1.80;;;;;;;-1.47;100.00;103278.75;6123245;29;20063;-80
2022/02/27 04:44:19;;;;;;;3.72;1.23;;;;;;;-1.48;100.00;103282.16;6124102;29;20052;-80
2022/02/27 04:47:21;;;;;;;1.42;1.13;;;;;;;-1.48;100.00;103284.75;6123861;28;20047;-80
2022/02/27 04:50:22;;;;;;;4.18;1.55;;;;;;;-1.55;100.00;103280.16;6122648;29;20073;-80
2022/02/27 04:53:25;;;;;;;3.83;1.65;;;;;;;-1.56;100.00;103278.41;6123811;29;20064;-80
2022/02/27 04:56:26;;;;;;;4.78;1.83;;;;;;;-1.55;100.00;103278.47;6123582;29;20055;-80
2022/02/27 04:59:27;;;;;;;1.15;0.95;;;;;;;-1.56;100.00;103276.72;6130908;29;20044;-80
2022/02/27 05:02:29;;;;;;;4.15;2.47;;;;;;;-1.59;100.00;103278.28;6131666;29;20514;-80
2022/02/27 05:05:30;;;;;;;2.83;1.50;;;;;;;-1.60;100.00;103281.69;6140871;29;20054;-80
2022/02/27 05:08:33;;;;;;;3.45;1.73;;;;;;;-1.63;100.00;103284.19;6147576;28;20062;-80
2022/02/27 05:11:34;;;;;;;5.25;2.53;;;;;;;-1.67;100.00;103285.75;6147259;28;20051;-81
2022/02/27 05:14:36;;;;;;;5.47;2.45;;;;;;;-1.65;100.00;103285.81;6147137;28;20047;-80
2022/02/27 05:17:37;;;;;;;1.75;1.63;;;;;;;-1.67;100.00;103287.47;6147245;28;20047;-79
2022/02/27 05:20:39;;;;;;;3.33;2.30;;;;;;;-1.67;100.00;103293.50;6146611;28;20050;-80
2022/02/27 05:23:41;;;;;;;2.33;1.38;;;;;;;-1.70;100.00;103284.75;6146839;28;20047;-80
2022/02/27 05:26:43;;;;;;;1.88;1.23;;;;;;;-1.69;100.00;103296.81;6147058;28;20051;-80
2022/02/27 05:29:44;;;;;;;4.10;1.70;;;;;;;-1.70;100.00;103285.63;6138358;28;20483;-80
2022/02/27 05:32:46;;;;;;;2.08;1.05;;;;;;;-1.70;100.00;103293.34;6141629;29;20048;-80
2022/02/27 05:35:47;;;;;;;3.95;2.08;;;;;;;-1.77;100.00;103303.38;6146842;28;20058;-80
2022/02/27 05:38:50;;;;;;;2.35;1.63;;;;;;;-1.77;100.00;103305.94;6147118;28;20059;-80
2022/02/27 05:41:51;;;;;;;2.05;1.50;;;;;;;-1.78;100.00;103307.66;6146071;28;20055;-80
2022/02/27 05:44:53;;;;;;;3.20;1.63;;;;;;;-1.80;100.00;103310.19;6146842;28;20051;-80
2022/02/27 05:47:54;;;;;;;4.40;1.58;;;;;;;-1.81;100.00;103308.44;6146768;28;20071;-80
2022/02/27 05:50:56;;;;;;;3.00;1.63;;;;;;;-1.81;100.00;103313.56;6145849;28;20051;-80
2022/02/27 05:53:58;;;;;;;3.13;1.95;;;;;;;-1.83;100.00;103312.63;6146781;28;20059;-80
2022/02/27 05:57:00;;;;;;;6.53;2.90;;;;;;;-1.84;100.00;103317.72;6146154;28;20438;-80
2022/02/27 06:00:01;;;;;;;4.65;1.67;;;;;;;-1.85;100.00;103316.84;6130636;28;20047;-80
2022/02/27 06:03:03;;;;;;;3.90;1.58;;;;;;;-1.86;100.00;103322.84;6131497;29;20058;-80
2022/02/27 06:06:04;;;;;;;1.50;1.30;;;;;;;-1.87;100.00;103322.75;6200681;28;20050;-80
2022/02/27 06:09:07;;;;;;;3.17;1.83;;;;;;;-1.86;100.00;103327.13;6209702;28;20057;-80
2022/02/27 06:12:09;;;;;;;3.00;1.83;;;;;;;-1.90;100.00;103333.84;6141712;28;20495;-80
2022/02/27 06:15:11;;;;;;;4.60;2.28;;;;;;;-1.91;100.00;103328.59;6161506;28;20481;-79
2022/02/27 06:18:12;;;;;;;3.33;1.38;;;;;;;-1.91;100.00;103326.03;6147661;28;20063;-81
2022/02/27 06:21:13;;;;;;;5.72;2.17;;;;;;;-1.92;100.00;103330.31;6118017;28;20062;-80
2022/02/27 06:24:16;;;;;;;5.03;2.00;;;;;;;-1.92;100.00;103327.72;6126482;29;20044;-80
2022/02/27 06:27:17;;;;;;;2.80;1.77;;;;;;;-1.93;100.00;103332.81;6134669;29;20525;-80
2022/02/27 06:30:21;;;;;;;3.15;1.90;;;;;;;-1.95;100.00;103330.19;6167231;28;20554;-80
2022/02/27 06:33:22;;;;;;;1.88;1.25;;;;;;;-1.94;100.00;103341.38;6166999;28;20059;-80
2022/02/27 06:36:24;;;;;;;3.85;2.35;;;;;;;-1.92;100.00;103343.19;6126663;29;20458;-80
2022/02/27 06:39:26;;;;;;;2.28;1.80;;;;;;;-1.89;100.00;103350.16;6126888;29;20056;-79
2022/02/27 06:42:28;;;;;;;5.68;2.13;;;;;;;-1.89;100.00;103350.16;6125486;29;20415;-80
2022/02/27 06:45:29;;;;;;;2.88;1.63;;;;;;;-1.88;100.00;103347.66;6126296;29;20056;-80
2022/02/27 06:48:30;;;;;;;1.83;0.90;;;;;;;-1.86;100.00;103358.91;6126105;29;20055;-81
2022/02/27 06:51:32;;;;;;;5.07;1.70;;;;;;;-1.84;100.00;103348.66;6133987;29;20059;-80
2022/02/27 06:54:34;;;;;;;2.00;1.55;;;;;;;-1.83;100.00;103355.56;6149160;28;20047;-80
2022/02/27 06:57:36;;;;;;;2.20;1.52;;;;;;;-1.81;100.00;103349.66;6148953;28;20051;-80
2022/02/27 07:00:37;;;;;;;1.85;1.17;;;;;;;-1.76;100.00;103354.13;6133893;28;20066;-80
2022/02/27 07:03:38;;;;;;;1.63;1.13;;;;;;;-1.70;100.00;103364.66;6127257;29;20074;-80
2022/02/27 07:06:40;;;;;;;2.28;1.40;;;;;;;-1.65;100.00;103366.59;6143619;28;20059;-80
2022/02/27 07:09:42;;;;;;;4.05;1.60;;;;;;;-1.62;100.00;103366.72;6159875;28;20056;-80
2022/02/27 07:12:45;;;;;;;2.75;1.83;;;;;;;-1.61;100.00;103376.22;6143220;28;20062;-80
2022/02/27 07:15:47;;;;;;;3.30;2.15;;;;;;;-1.59;100.00;103373.69;6149005;28;20185;-80
2022/02/27 07:18:49;;;;;;;2.95;1.80;;;;;;;-1.53;100.00;103376.50;6148647;28;20059;-81
2022/02/27 07:21:50;;;;;;;2.38;1.75;;;;;;;-1.47;100.00;103376.75;6146544;28;20514;-81
2022/02/27 07:24:54;;;;;;;5.45;2.58;;;;;;;-1.42;100.00;103377.78;6136706;28;20044;-80
2022/02/27 07:27:55;;;;;;;4.78;2.60;;;;;;;-1.39;100.00;103383.09;6148514;28;20047;-81
2022/02/27 07:30:57;;;;;;;3.90;1.83;;;;;;;-1.34;100.00;103378.97;6148039;28;20070;-81
2022/02/27 07:34:00;;;;;;;2.88;1.77;;;;;;;-1.32;100.00;103373.88;6139216;28;20048;-80
2022/02/27 07:37:02;;;;;;;3.97;1.98;;;;;;;-1.22;100.00;103386.31;6110101;29;20051;-81
2022/02/27 07:40:06;;;;;;;2.17;1.48;;;;;;;-1.19;100.00;103382.94;6123612;29;20053;-80
2022/02/27 07:43:07;;;;;;;2.65;1.30;;;;;;;-1.19;100.00;103383.81;6123329;29;20530;-81
2022/02/27 07:46:08;;;;;;;2.70;1.65;;;;;;;-1.10;100.00;103393.63;6133810;28;20047;-81
2022/02/27 07:49:10;;;;;;;9.27;1.75;;;;;;;-1.02;100.00;103394.78;6165695;28;20059;-81
2022/02/27 07:52:12;;;;;;;2.80;1.40;;;;;;;-0.98;100.00;103381.19;6131406;29;20415;-81
2022/02/27 07:55:18;;;;;;;1.98;1.20;;;;;;;-0.95;100.00;103381.31;6123950;29;20056;-80
2022/02/27 07:58:19;;;;;;;2.85;2.13;;;;;;;-0.89;100.00;103375.47;6123219;29;20083;-80
2022/02/27 08:01:21;;;;;;;2.22;1.35;;;;;;;-0.76;100.00;103375.09;6149206;28;20053;-80
2022/02/27 08:04:22;;;;;;;4.63;2.30;;;;;;;-0.68;100.00;103368.50;6248235;28;20512;-80
2022/02/27 08:07:24;;;;;;;3.25;1.83;;;;;;;-0.56;100.00;103378.38;6247975;28;20061;-81
2022/02/27 08:10:27;;;;;;;7.95;2.10;;;;;;;-0.48;100.00;103373.47;6247523;28;20050;-80
2022/02/27 08:13:29;;;;;;;2.72;1.75;;;;;;;-0.45;100.00;103371.00;6247724;28;20049;-80
2022/02/27 08:16:30;;;;;;;3.03;1.83;;;;;;;-0.34;100.00;103370.53;6247800;28;20052;-79
2022/02/27 08:19:32;;;;;;;3.92;2.28;;;;;;;-0.26;100.00;103381.13;6248001;28;20053;-78
2022/02/27 08:22:33;;;;;;;3.55;2.10;;;;;;;-0.21;100.00;103374.41;6239087;28;20132;-79
2022/02/27 08:25:36;;;;;;;5.78;3.00;;;;;;;-0.11;100.00;103383.34;6110872;29;20066;-79
2022/02/27 08:28:38;;;;;;;3.42;1.85;;;;;;;0.02;100.00;103375.19;6121979;29;20419;-79
2022/02/27 08:31:42;;;;;;;3.97;2.13;;;;;;;0.10;100.00;103388.34;6112249;29;20412;-79
2022/02/27 08:34:43;;;;;;;3.92;2.00;;;;;;;0.20;100.00;103380.94;6120498;29;20551;-79
2022/02/27 08:37:44;;;;;;;3.30;2.05;;;;;;;0.27;100.00;103382.00;6116346;28;20507;-78
2022/02/27 08:40:47;;;;;;;4.03;2.22;;;;;;;0.41;100.00;103379.84;6116831;28;20054;-78
2022/02/27 08:43:49;;;;;;;5.07;2.33;;;;;;;0.57;100.00;103376.03;6116875;29;20056;-78
2022/02/27 08:46:50;;;;;;;3.58;2.00;;;;;;;0.66;100.00;103382.34;6115805;29;20063;-78
2022/02/27 08:49:51;;;;;;;4.47;2.22;;;;;;;0.75;100.00;103376.56;6115999;29;20048;-78
2022/02/27 08:52:53;;;;;;;3.95;2.30;;;;;;;0.91;100.00;103370.13;6117262;29;20043;-78
2022/02/27 08:55:56;;;;;;;2.53;1.85;;;;;;;1.07;100.00;103366.28;6121270;29;20051;-79
2022/02/27 08:58:57;;;;;;;4.00;2.67;;;;;;;1.17;100.00;103369.16;6123998;29;20054;-80
2022/02/27 09:01:59;;;;;;;5.03;2.53;;;;;;;1.19;100.00;103377.00;6129674;28;20661;-80
2022/02/27 09:05:00;;;;;;;4.50;2.15;;;;;;;1.27;100.00;103371.19;6139845;29;20507;-80
2022/02/27 09:08:01;;;;;;;5.10;2.75;;;;;;;1.40;100.00;103372.38;6149801;29;20058;-80
2022/02/27 09:11:04;;;;;;;5.65;2.88;;;;;;;1.53;100.00;103371.00;6144436;28;20499;-80
2022/02/27 09:14:05;;;;;;;7.43;2.72;;;;;;;1.61;100.00;103368.59;6129967;28;20055;-80
2022/02/27 09:17:07;;;;;;;5.53;2.17;;;;;;;1.67;100.00;103360.97;6128575;29;20052;-80
2022/02/27 09:20:10;;;;;;;4.75;2.42;;;;;;;1.79;100.00;103369.06;6126501;29;20051;-79
2022/02/27 09:23:12;;;;;;;3.97;2.83;;;;;;;1.86;100.00;103359.72;6125056;29;20659;-80
2022/02/27 09:26:14;;;;;;;6.38;2.70;;;;;;;1.93;100.00;103361.63;6126740;28;20056;-80
2022/02/27 09:29:16;;;;;;;2.47;1.70;;;;;;;2.00;100.00;103361.84;6123761;28;20051;-80
2022/02/27 09:32:18;;;;;;;3.42;2.25;;;;;;;2.19;100.00;103357.09;6140980;29;20047;-80
2022/02/27 09:35:23;;;;;;;6.25;3.33;;;;;;;2.40;100.00;103361.88;6150955;28;20064;-81
2022/02/27 09:38:24;;;;;;;8.25;2.80;;;;;;;2.42;100.00;103355.88;6154528;28;20066;-80
2022/02/27 09:41:27;;;;;;;8.85;3.10;;;;;;;2.56;100.00;103357.91;6153461;28;20059;-81
2022/02/27 09:44:37;;;;;;;6.05;2.50;;;;;;;2.58;100.00;103356.22;6155851;28;20047;-80
2022/02/27 09:47:39;;;;;;;7.03;2.40;;;;;;;2.57;100.00;103364.84;6156205;28;20059;-80
2022/02/27 09:50:41;;;;;;;6.45;2.00;;;;;;;2.70;100.00;103364.28;6156148;28;20051;-80
2022/02/27 09:53:43;;;;;;;5.05;2.63;;;;;;;2.84;100.00;103352.47;6156149;28;20058;-80
2022/02/27 09:56:45;;;;;;;5.82;2.58;;;;;;;2.96;100.00;103350.13;6154659;28;20059;-80
2022/02/27 09:59:48;;;;;;;8.82;2.90;;;;;;;2.99;100.00;103346.69;6155290;28;20396;-81
2022/02/27 10:03:11;;;;;;;7.25;3.17;;;;;;;3.25;100.00;103344.59;6140694;28;20182;-79
2022/02/27 10:06:15;;;;;;;4.82;2.33;;;;;;;3.38;100.00;103349.19;6130611;29;20051;-80
2022/02/27 10:09:23;;;;;;;4.85;2.30;;;;;;;3.54;100.00;103339.94;6130915;28;20074;-81
2022/02/27 10:12:26;;;;;;;14.57;3.22;;;;;;;3.56;100.00;103348.66;6131051;28;20153;-80
2022/02/27 10:15:28;;;;;;;7.05;2.15;;;;;;;3.52;100.00;103345.13;6130742;28;20059;-80
2022/02/27 10:18:38;;;;;;;7.25;2.30;;;;;;;3.68;100.00;103351.47;6130975;29;20055;-80
2022/02/27 10:21:43;;;;;;;3.22;2.05;;;;;;;3.80;100.00;103343.84;6130021;29;20055;-80
2022/02/27 10:24:48;;;;;;;3.03;1.95;;;;;;;3.84;100.00;103343.91;6129431;28;20497;-81
2022/02/27 10:27:53;;;;;;;7.07;2.40;;;;;;;4.03;100.00;103336.41;6130450;28;20056;-80
2022/02/27 10:30:56;;;;;;;4.22;2.03;;;;;;;4.11;100.00;103341.75;6129032;28;20052;-81
2022/02/27 10:33:57;;;;;;;4.35;2.03;;;;;;;4.15;100.00;103325.34;6129561;29;20416;-80
2022/02/27 10:37:01;;;;;;;5.22;2.38;;;;;;;4.26;100.00;103333.28;6162631;28;20091;-79
2022/02/27 10:40:02;;;;;;;4.65;2.10;;;;;;;4.36;100.00;103332.59;6205401;28;20049;-80
2022/02/27 10:43:08;;;;;;;4.10;1.90;;;;;;;4.45;100.00;103343.13;6253960;28;20060;-81
2022/02/27 10:46:10;;;;;;;4.43;2.20;;;;;;;4.56;100.00;103338.06;6252399;28;20045;-81
2022/02/27 10:49:11;;;;;;;8.57;1.90;;;;;;;4.55;100.00;103334.59;6253694;28;20049;-81
2022/02/27 10:52:15;;;;;;;4.75;2.70;;;;;;;4.73;100.00;103336.56;6199081;28;20063;-80
2022/02/27 10:55:17;;;;;;;7.18;2.55;;;;;;;4.86;100.00;103323.66;6127587;28;20055;-80
2022/02/27 10:58:19;;;;;;;3.63;2.05;;;;;;;4.97;100.00;103317.72;6144780;28;20056;-81
2022/02/27 11:01:23;;;;;;;4.18;2.33;;;;;;;5.18;100.00;103313.59;6155259;28;20046;-81
2022/02/27 11:04:24;;;;;;;8.40;2.40;;;;;;;5.38;100.00;103327.72;6124865;28;20055;-81
2022/02/27 11:07:26;;;;;;;3.20;1.90;;;;;;;5.53;100.00;103321.75;6124811;29;20079;-81
2022/02/27 11:10:30;;;;;;;3.00;1.70;;;;;;;5.56;98.60;103320.06;6125580;29;20052;-81
2022/02/27 11:13:34;;;;;;;4.57;1.85;;;;;;;5.80;95.96;103314.16;6126963;29;20058;-81
2022/02/27 11:16:35;;;;;;;3.13;1.63;;;;;;;6.00;93.98;103308.28;6123597;29;20054;-79
2022/02/27 11:19:38;;;;;;;3.17;1.40;;;;;;;6.33;87.55;103305.88;6101423;28;20052;-81
2022/02/27 11:22:39;;;;;;;3.85;1.70;;;;;;;6.47;88.65;103298.09;6125830;29;20470;-79
2022/02/27 11:25:41;;;;;;;5.65;1.80;;;;;;;6.55;86.78;103288.56;6166305;28;20518;-80
2022/02/27 11:28:44;;;;;;;3.45;1.60;;;;;;;6.56;85.63;103285.06;6187029;28;20072;-79
2022/02/27 11:31:48;;;;;;;3.72;1.15;;;;;;;6.71;85.77;103275.53;6148226;28;20430;-80
2022/02/27 11:34:49;;;;;;;3.75;1.90;;;;;;;6.96;83.01;103269.53;6125028;29;20102;-79
2022/02/27 11:37:51;;;;;;;7.93;1.10;;;;;;;7.06;81.49;103270.41;6110922;29;20051;-79
2022/02/27 11:40:57;;;;;;;4.30;1.27;;;;;;;7.34;79.01;103255.63;6112330;29;20044;-79
2022/02/27 11:44:13;;;;;;;3.65;2.08;;;;;;;7.56;76.61;103261.75;6112849;28;20404;-79
2022/02/27 11:47:15;;;;;;;2.42;1.45;;;;;;;7.78;74.35;103257.38;6122989;28;20055;-79
2022/02/27 11:50:25;;;;;;;2.90;1.63;;;;;;;8.04;72.44;103252.06;6143918;28;20057;-81
2022/02/27 11:53:47;;;;;;;4.05;1.58;;;;;;;8.22;69.63;103249.41;6122235;28;20050;-80
2022/02/27 11:57:06;;;;;;;6.38;1.25;;;;;;;8.36;68.13;103241.50;6185751;28;20046;-80
2022/02/27 12:00:11;;;;;;;2.90;1.10;;;;;;;8.34;67.26;103238.00;6247208;28;20065;-80
2022/02/27 12:03:37;;;;;;;2.20;1.10;;;;;;;8.60;66.51;103230.94;6248646;28;20053;-80
2022/02/27 12:07:05;;;;;;;3.65;1.63;;;;;;;8.88;64.81;103234.25;6241831;28;20124;-80
2022/02/27 12:10:07;;;;;;;1.08;0.70;;;;;;;8.93;64.56;103233.38;6248664;28;20061;-80
2022/02/27 12:13:23;;;;;;;3.20;1.10;;;;;;;9.29;62.86;103235.72;6247973;28;20056;-80
2022/02/27 12:16:36;;;;;;;3.13;1.00;;;;;;;9.42;63.18;103233.00;6248873;28;20041;-80
2022/02/27 12:19:37;;;;;;;1.52;1.10;;;;;;;9.44;63.05;103226.84;6248883;28;20049;-80
2022/02/27 12:22:45;;;;;;;2.53;1.02;;;;;;;9.51;62.73;103227.69;6248011;28;20053;-80
2022/02/27 12:25:46;;;;;;;2.20;1.10;;;;;;;9.55;60.57;103226.78;6249342;28;20046;-79
2022/02/27 12:28:57;;;;;;;2.78;1.02;;;;;;;9.81;60.13;103214.25;6248516;28;20052;-80
2022/02/27 12:32:07;;;;;;;1.45;1.00;;;;;;;9.99;61.01;103214.91;6224177;28;20048;-80
2022/02/27 12:35:08;;;;;;;3.45;0.90;;;;;;;9.90;62.36;103219.41;6132570;28;20051;-80
2022/02/27 12:38:13;;;;;;;1.20;0.88;;;;;;;10.13;59.37;103219.16;6131429;29;20051;-80
2022/02/27 12:41:18;;;;;;;2.42;1.35;;;;;;;10.16;58.75;103213.84;6123577;29;20058;-80
2022/02/27 12:44:25;;;;;;;1.85;1.02;;;;;;;10.44;57.08;103208.25;6140360;29;20535;-80
2022/02/27 12:47:28;;;;;;;2.65;1.48;;;;;;;10.27;58.88;103210.28;6135929;28;20063;-80
2022/02/27 12:50:31;;;;;;;1.50;1.20;;;;;;;10.35;58.60;103211.88;6134260;28;20058;-79
2022/02/27 12:53:32;;;;;;;6.38;1.55;;;;;;;10.32;58.77;103209.31;6130353;28;20052;-80
2022/02/27 12:56:35;;;;;;;3.67;1.70;;;;;;;10.59;58.45;103204.59;6161708;28;20048;-80
2022/02/27 12:59:40;;;;;;;1.73;1.25;;;;;;;10.65;57.13;103207.97;6133492;28;20052;-80
2022/02/27 13:02:43;;;;;;;2.22;1.08;;;;;;;10.58;58.09;103206.34;6125649;29;20070;-79
2022/02/27 13:05:45;;;;;;;2.55;1.35;;;;;;;10.72;59.94;103203.53;6123937;29;20040;-78
2022/02/27 13:08:49;;;;;;;4.03;1.52;;;;;;;10.66;55.32;103187.81;6167420;28;20054;-79
2022/02/27 13:11:51;;;;;;;2.30;1.17;;;;;;;10.88;54.34;103193.63;6125336;28;20043;-79
2022/02/27 13:14:54;;;;;;;2.47;1.45;;;;;;;10.83;57.47;103192.84;6125950;28;20054;-80
2022/02/27 13:18:02;;;;;;;4.93;1.45;;;;;;;10.87;56.02;103195.38;6173772;28;20522;-79
2022/02/27 13:21:07;;;;;;;1.55;1.10;;;;;;;11.03;55.89;103193.38;6175563;28;20045;-79
2022/02/27 13:24:11;;;;;;;23.92;9.27;;;;;;;11.16;54.39;103184.38;6147839;28;20054;-79
2022/02/27 13:27:18;;;;;;;3.90;1.50;;;;;;;10.96;51.94;103190.88;6176133;28;20044;-78
2022/02/27 13:30:22;;;;;;;3.13;1.08;;;;;;;11.16;51.19;103178.25;6142573;28;20055;-78
2022/02/27 13:33:24;;;;;;;1.77;1.17;;;;;;;10.91;52.83;103185.69;6127096;28;20048;-79
2022/02/27 13:36:26;;;;;;;4.82;1.48;;;;;;;10.86;53.71;103183.13;6148099;28;20499;-79
2022/02/27 13:39:37;;;;;;;2.80;1.08;;;;;;;11.00;55.52;103172.41;6129583;28;20076;-78
2022/02/27 13:42:39;;;;;;;4.28;1.30;;;;;;;10.92;54.80;103174.28;6125848;29;20043;-78
2022/02/27 13:45:43;;;;;;;5.65;1.55;;;;;;;10.99;55.11;103168.03;6128847;29;20055;-78
2022/02/27 13:48:46;;;;;;;3.60;1.60;;;;;;;10.90;53.41;103170.78;6117363;28;20047;-79
2022/02/27 13:51:48;;;;;;;4.20;1.75;;;;;;;10.84;54.03;103160.38;6122220;28;20503;-79
2022/02/27 13:54:50;;;;;;;3.30;1.90;;;;;;;10.90;54.13;103161.16;6124315;28;20043;-78
2022/02/27 13:58:03;;;;;;;4.10;1.88;;;;;;;10.82;55.54;103156.91;6120652;28;20048;-79
2022/02/27 14:01:06;;;;;;;4.18;1.75;;;;;;;10.96;55.22;103148.78;6113350;29;20052;-79
2022/02/27 14:04:09;;;;;;;2.17;1.58;;;;;;;10.96;56.32;103143.53;6118391;29;20047;-79
2022/02/27 14:07:14;;;;;;;2.35;1.50;;;;;;;10.84;55.67;103145.44;6111109;29;20498;-78